createdAt,value
2018-12-01T00:00:11.176Z,0.00
2018-12-01T00:01:11.169Z,0.00
2018-12-01T00:02:11.155Z,0.00
2018-12-01T00:03:11.171Z,0.00
2018-12-01T00:04:11.131Z,0.00
2018-12-01T00:05:11.123Z,0.00
2018-12-01T00:06:11.107Z,0.00
2018-12-01T00:07:11.101Z,0.00
2018-12-01T00:08:11.117Z,0.00
2018-12-01T00:09:11.080Z,0.00
2018-12-01T00:10:11.064Z,0.00
2018-12-01T00:11:11.056Z,0.00
2018-12-01T00:12:11.044Z,0.00
2018-12-01T00:13:11.062Z,0.00
2018-12-01T00:14:11.020Z,0.00
2018-12-01T00:15:11.013Z,0.00
2018-12-01T00:16:11.001Z,0.00
2018-12-01T00:17:10.985Z,0.00
2018-12-01T00:18:11.008Z,0.00
2018-12-01T00:19:10.962Z,0.00
2018-12-01T00:20:10.951Z,0.00
2018-12-01T00:21:10.941Z,0.00
2018-12-01T00:22:10.938Z,0.00
2018-12-01T00:23:10.954Z,0.00
2018-12-01T00:24:10.920Z,0.00
2018-12-01T00:25:10.896Z,0.00
2018-12-01T00:26:10.886Z,0.00
2018-12-01T00:27:10.874Z,0.00
2018-12-01T00:28:10.891Z,0.00
2018-12-01T00:29:10.855Z,0.00
2018-12-01T00:30:10.840Z,0.00
2018-12-01T00:31:10.831Z,0.00
2018-12-01T00:32:10.819Z,0.00
2018-12-01T00:33:10.834Z,0.00
2018-12-01T00:34:10.799Z,0.00
2018-12-01T00:35:10.791Z,0.00
2018-12-01T00:36:10.780Z,0.00
2018-12-01T00:37:10.762Z,0.00
2018-12-01T00:38:10.786Z,0.00
2018-12-01T00:39:10.741Z,0.00
2018-12-01T00:40:10.730Z,0.00
2018-12-01T00:41:10.721Z,0.00
2018-12-01T00:42:10.710Z,0.00
2018-12-01T00:43:10.704Z,0.00
2018-12-01T00:44:10.717Z,0.00
2018-12-01T00:45:10.674Z,0.00
2018-12-01T00:46:10.662Z,0.00
2018-12-01T00:47:10.653Z,0.00
2018-12-01T00:48:10.643Z,0.00
2018-12-01T00:49:10.657Z,0.00
2018-12-01T00:50:10.621Z,0.00
2018-12-01T00:51:10.607Z,0.00
2018-12-01T00:52:10.608Z,0.00
2018-12-01T00:53:10.589Z,0.00
2018-12-01T00:54:10.610Z,0.00
2018-12-01T00:55:10.567Z,0.00
2018-12-01T00:56:10.550Z,0.00
2018-12-01T00:57:10.539Z,0.00
2018-12-01T00:58:10.533Z,0.00
2018-12-01T00:59:10.547Z,0.00
2018-12-01T01:00:10.516Z,0.00
2018-12-01T01:01:10.494Z,0.00
2018-12-01T01:02:10.483Z,0.00
2018-12-01T01:03:10.481Z,0.00
2018-12-01T01:04:10.493Z,0.00
2018-12-01T01:05:10.487Z,0.00
2018-12-01T01:06:10.447Z,0.00
2018-12-01T01:07:10.431Z,0.00
2018-12-01T01:08:10.428Z,0.00
2018-12-01T01:09:10.436Z,0.00
2018-12-01T01:10:10.397Z,0.00
2018-12-01T01:11:10.385Z,0.00
2018-12-01T01:12:10.373Z,0.00
2018-12-01T01:13:10.363Z,0.00
2018-12-01T01:14:10.380Z,0.00
2018-12-01T01:15:10.339Z,0.00
2018-12-01T01:16:10.330Z,0.00
2018-12-01T01:17:10.318Z,0.00
2018-12-01T01:18:10.305Z,0.00
2018-12-01T01:19:10.328Z,0.00
2018-12-01T01:20:10.284Z,0.00
2018-12-01T01:21:10.274Z,0.00
2018-12-01T01:22:10.261Z,0.00
2018-12-01T01:23:10.251Z,0.00
2018-12-01T01:24:10.270Z,0.00
2018-12-01T01:25:10.260Z,0.00
2018-12-01T01:26:10.215Z,0.00
2018-12-01T01:27:10.208Z,0.00
2018-12-01T01:28:10.195Z,0.00
2018-12-01T01:29:10.209Z,0.00
2018-12-01T01:30:10.203Z,0.00
2018-12-01T01:31:10.165Z,0.00
2018-12-01T01:32:10.156Z,0.00
2018-12-01T01:33:10.139Z,0.00
2018-12-01T01:34:10.157Z,0.00
2018-12-01T01:35:10.122Z,0.00
2018-12-01T01:36:10.104Z,0.00
2018-12-01T01:37:10.100Z,0.00
2018-12-01T01:38:10.085Z,0.00
2018-12-01T01:39:10.102Z,0.00
2018-12-01T01:40:10.065Z,0.00
2018-12-01T01:41:10.053Z,0.00
2018-12-01T01:42:10.039Z,0.00
2018-12-01T01:43:10.034Z,0.00
2018-12-01T01:44:10.046Z,0.00
2018-12-01T01:45:10.011Z,0.00
2018-12-01T01:46:09.993Z,0.00
2018-12-01T01:47:09.983Z,0.00
2018-12-01T01:48:09.974Z,0.00
2018-12-01T01:49:09.989Z,0.00
2018-12-01T01:50:09.953Z,0.00
2018-12-01T01:51:09.958Z,0.00
2018-12-01T01:52:09.932Z,0.00
2018-12-01T01:53:09.915Z,0.00
2018-12-01T01:54:09.944Z,0.00
2018-12-01T01:55:09.925Z,0.00
2018-12-01T01:56:09.903Z,0.00
2018-12-01T01:57:09.874Z,0.00
2018-12-01T01:58:09.860Z,0.00
2018-12-01T01:59:09.879Z,0.00
2018-12-01T02:00:09.837Z,0.00
2018-12-01T02:01:09.827Z,0.00
2018-12-01T02:02:09.848Z,0.00
2018-12-01T02:03:09.803Z,0.00
2018-12-01T02:04:09.795Z,0.00
2018-12-01T02:05:09.818Z,0.00
2018-12-01T02:06:09.774Z,0.00
2018-12-01T02:07:09.762Z,0.00
2018-12-01T02:08:09.760Z,0.00
2018-12-01T02:09:09.744Z,0.00
2018-12-01T02:10:09.758Z,0.00
2018-12-01T02:11:09.714Z,0.00
2018-12-01T02:12:09.716Z,0.00
2018-12-01T02:13:09.697Z,0.00
2018-12-01T02:14:09.685Z,0.00
2018-12-01T02:15:09.711Z,0.00
2018-12-01T02:16:09.663Z,0.00
2018-12-01T02:17:09.650Z,0.00
2018-12-01T02:18:09.640Z,0.00
2018-12-01T02:19:09.627Z,0.00
2018-12-01T02:20:09.647Z,0.00
2018-12-01T02:21:09.607Z,0.00
2018-12-01T02:22:09.601Z,0.00
2018-12-01T02:23:09.583Z,0.00
2018-12-01T02:24:09.571Z,0.00
2018-12-01T02:25:09.589Z,0.00
2018-12-01T02:26:09.551Z,0.00
2018-12-01T02:27:09.578Z,0.00
2018-12-01T02:28:09.529Z,0.00
2018-12-01T02:29:09.518Z,0.00
2018-12-01T02:30:09.535Z,0.00
2018-12-01T02:31:09.495Z,0.00
2018-12-01T02:32:09.486Z,0.00
2018-12-01T02:33:09.477Z,0.00
2018-12-01T02:34:09.461Z,0.00
2018-12-01T02:35:09.483Z,0.00
2018-12-01T02:36:09.440Z,0.00
2018-12-01T02:37:09.428Z,0.00
2018-12-01T02:38:09.417Z,0.00
2018-12-01T02:39:09.405Z,0.00
2018-12-01T02:40:09.421Z,0.00
2018-12-01T02:41:09.386Z,0.00
2018-12-01T02:42:09.374Z,0.00
2018-12-01T02:43:09.359Z,0.00
2018-12-01T02:44:09.348Z,0.00
2018-12-01T02:45:09.371Z,0.00
2018-12-01T02:46:09.326Z,0.00
2018-12-01T02:47:09.372Z,0.00
2018-12-01T02:48:09.309Z,0.00
2018-12-01T02:49:09.294Z,0.00
2018-12-01T02:50:09.351Z,0.00
2018-12-01T02:51:09.277Z,0.00
2018-12-01T02:52:09.263Z,0.00
2018-12-01T02:53:09.252Z,0.00
2018-12-01T02:54:09.239Z,0.00
2018-12-01T02:55:09.231Z,0.00
2018-12-01T02:56:09.248Z,0.00
2018-12-01T02:57:09.207Z,0.00
2018-12-01T02:58:09.195Z,0.00
2018-12-01T02:59:09.187Z,0.00
2018-12-01T03:00:09.175Z,0.00
2018-12-01T03:01:09.193Z,0.00
2018-12-01T03:02:09.176Z,0.00
2018-12-01T03:03:09.139Z,0.00
2018-12-01T03:04:09.128Z,0.00
2018-12-01T03:05:09.124Z,0.00
2018-12-01T03:06:09.138Z,0.00
2018-12-01T03:07:09.094Z,0.00
2018-12-01T03:08:09.084Z,0.00
2018-12-01T03:09:09.105Z,0.00
2018-12-01T03:10:09.068Z,0.00
2018-12-01T03:11:09.081Z,0.00
2018-12-01T03:12:09.048Z,0.00
2018-12-01T03:13:09.032Z,0.00
2018-12-01T03:14:09.022Z,0.00
2018-12-01T03:15:09.007Z,0.00
2018-12-01T03:16:09.029Z,0.00
2018-12-01T03:17:08.986Z,0.00
2018-12-01T03:18:13.508Z,0.00
2018-12-01T03:19:08.966Z,0.00
2018-12-01T03:20:08.952Z,0.00
2018-12-01T03:21:08.971Z,0.00
2018-12-01T03:22:08.929Z,0.00
2018-12-01T03:23:08.952Z,0.00
2018-12-01T03:24:08.908Z,0.00
2018-12-01T03:25:08.893Z,0.00
2018-12-01T03:26:08.923Z,0.00
2018-12-01T03:27:08.879Z,0.00
2018-12-01T03:28:08.861Z,0.00
2018-12-01T03:29:08.852Z,0.00
2018-12-01T03:30:08.842Z,0.00
2018-12-01T03:31:08.886Z,0.00
2018-12-01T03:32:08.823Z,0.00
2018-12-01T03:33:08.811Z,0.00
2018-12-01T03:34:08.797Z,0.00
2018-12-01T03:35:08.789Z,0.00
2018-12-01T03:36:08.800Z,0.00
2018-12-01T03:37:08.766Z,0.00
2018-12-01T03:38:08.750Z,0.00
2018-12-01T03:39:08.741Z,0.00
2018-12-01T03:40:08.729Z,0.00
2018-12-01T03:41:08.722Z,0.00
2018-12-01T03:42:09.094Z,0.00
2018-12-01T03:43:08.703Z,0.00
2018-12-01T03:44:08.725Z,0.00
2018-12-01T03:45:08.685Z,0.00
2018-12-01T03:46:08.696Z,0.00
2018-12-01T03:47:08.679Z,0.00
2018-12-01T03:48:08.642Z,0.00
2018-12-01T03:49:08.632Z,0.00
2018-12-01T03:50:08.631Z,0.00
2018-12-01T03:51:08.610Z,0.00
2018-12-01T03:52:08.649Z,0.00
2018-12-01T03:53:08.587Z,0.00
2018-12-01T03:54:08.594Z,0.00
2018-12-01T03:55:08.566Z,0.00
2018-12-01T03:56:08.552Z,0.00
2018-12-01T03:57:08.575Z,0.00
2018-12-01T03:58:08.529Z,0.00
2018-12-01T03:59:08.518Z,0.00
2018-12-01T04:00:08.506Z,0.00
2018-12-01T04:01:08.498Z,0.00
2018-12-01T04:02:08.518Z,0.00
2018-12-01T04:03:08.474Z,0.00
2018-12-01T04:04:08.484Z,0.00
2018-12-01T04:05:08.457Z,0.00
2018-12-01T04:06:08.440Z,0.00
2018-12-01T04:07:08.461Z,0.00
2018-12-01T04:08:08.425Z,0.00
2018-12-01T04:09:08.407Z,0.00
2018-12-01T04:10:08.418Z,0.00
2018-12-01T04:11:08.386Z,0.00
2018-12-01T04:12:08.408Z,0.00
2018-12-01T04:13:08.365Z,0.00
2018-12-01T04:14:08.360Z,0.00
2018-12-01T04:15:08.343Z,0.00
2018-12-01T04:16:08.332Z,0.00
2018-12-01T04:17:08.349Z,0.00
2018-12-01T04:18:08.340Z,0.00
2018-12-01T04:19:08.299Z,0.00
2018-12-01T04:20:08.289Z,0.00
2018-12-01T04:21:08.280Z,0.00
2018-12-01T04:22:08.294Z,0.00
2018-12-01T04:23:08.255Z,0.00
2018-12-01T04:24:08.241Z,0.00
2018-12-01T04:25:08.252Z,0.00
2018-12-01T04:26:08.219Z,0.00
2018-12-01T04:27:08.243Z,0.00
2018-12-01T04:28:08.203Z,0.00
2018-12-01T04:29:08.189Z,0.00
2018-12-01T04:30:08.181Z,0.00
2018-12-01T04:31:08.166Z,0.00
2018-12-01T04:32:08.185Z,0.00
2018-12-01T04:33:08.145Z,0.00
2018-12-01T04:34:08.131Z,0.00
2018-12-01T04:35:08.121Z,0.00
2018-12-01T04:36:08.111Z,0.00
2018-12-01T04:37:08.128Z,0.00
2018-12-01T04:38:08.138Z,0.00
2018-12-01T04:39:08.079Z,0.00
2018-12-01T04:40:08.072Z,0.00
2018-12-01T04:41:08.053Z,0.00
2018-12-01T04:42:08.072Z,0.00
2018-12-01T04:43:08.036Z,0.00
2018-12-01T04:44:08.023Z,0.00
2018-12-01T04:45:08.006Z,0.00
2018-12-01T04:46:07.997Z,0.00
2018-12-01T04:47:08.020Z,0.00
2018-12-01T04:48:07.978Z,0.00
2018-12-01T04:49:07.997Z,0.00
2018-12-01T04:50:07.959Z,0.00
2018-12-01T04:51:07.944Z,0.00
2018-12-01T04:52:07.958Z,0.00
2018-12-01T04:53:07.933Z,0.00
2018-12-01T04:54:07.927Z,0.00
2018-12-01T04:55:07.899Z,0.00
2018-12-01T04:56:07.883Z,0.00
2018-12-01T04:57:07.905Z,0.00
2018-12-01T04:58:07.860Z,0.00
2018-12-01T04:59:07.849Z,0.00
2018-12-01T05:00:07.838Z,0.00
2018-12-01T05:01:07.826Z,0.00
2018-12-01T05:02:07.880Z,0.00
2018-12-01T05:03:07.808Z,0.00
2018-12-01T05:04:07.793Z,0.00
2018-12-01T05:05:07.786Z,0.00
2018-12-01T05:06:07.770Z,0.00
2018-12-01T05:07:07.789Z,0.00
2018-12-01T05:08:07.753Z,0.00
2018-12-01T05:09:07.735Z,0.00
2018-12-01T05:10:07.725Z,0.00
2018-12-01T05:11:07.714Z,0.00
2018-12-01T05:12:07.729Z,0.00
2018-12-01T05:13:07.692Z,0.00
2018-12-01T05:14:07.717Z,0.00
2018-12-01T05:15:07.667Z,0.00
2018-12-01T05:16:07.662Z,0.00
2018-12-01T05:17:07.674Z,0.00
2018-12-01T05:18:07.638Z,0.00
2018-12-01T05:19:07.630Z,0.00
2018-12-01T05:20:07.610Z,0.00
2018-12-01T05:21:07.627Z,0.00
2018-12-01T05:22:07.620Z,0.00
2018-12-01T05:23:07.584Z,0.00
2018-12-01T05:24:07.566Z,0.00
2018-12-01T05:25:07.564Z,0.00
2018-12-01T05:26:07.544Z,0.00
2018-12-01T05:27:07.565Z,0.00
2018-12-01T05:28:07.519Z,0.00
2018-12-01T05:29:07.511Z,0.00
2018-12-01T05:30:07.500Z,0.00
2018-12-01T05:31:07.486Z,0.00
2018-12-01T05:32:07.486Z,0.00
2018-12-01T05:33:07.498Z,0.00
2018-12-01T05:34:07.486Z,0.00
2018-12-01T05:35:07.453Z,0.00
2018-12-01T05:36:07.431Z,0.00
2018-12-01T05:37:07.479Z,0.00
2018-12-01T05:38:07.409Z,0.00
2018-12-01T05:39:07.398Z,0.00
2018-12-01T05:40:07.390Z,0.00
2018-12-01T05:41:07.374Z,0.00
2018-12-01T05:42:07.366Z,0.00
2018-12-01T05:43:07.379Z,0.00
2018-12-01T05:44:07.342Z,0.00
2018-12-01T05:45:07.349Z,0.00
2018-12-01T05:46:07.323Z,0.00
2018-12-01T05:47:07.309Z,0.00
2018-12-01T05:48:07.326Z,0.00
2018-12-01T05:49:07.287Z,0.00
2018-12-01T05:50:07.272Z,0.00
2018-12-01T05:51:07.258Z,0.00
2018-12-01T05:52:07.250Z,0.00
2018-12-01T05:53:07.291Z,0.00
2018-12-01T05:54:07.232Z,0.00
2018-12-01T05:55:07.214Z,0.00
2018-12-01T05:56:07.203Z,0.00
2018-12-01T05:57:07.219Z,0.00
2018-12-01T05:58:07.209Z,0.00
2018-12-01T05:59:07.173Z,0.00
2018-12-01T06:00:07.166Z,0.00
2018-12-01T06:01:07.147Z,0.00
2018-12-01T06:02:07.142Z,0.00
2018-12-01T06:03:07.157Z,0.00
2018-12-01T06:04:07.116Z,0.00
2018-12-01T06:05:07.101Z,0.00
2018-12-01T06:06:07.098Z,0.00
2018-12-01T06:07:07.086Z,0.00
2018-12-01T06:08:07.138Z,0.00
2018-12-01T06:09:07.061Z,0.00
2018-12-01T06:10:07.047Z,0.00
2018-12-01T06:11:07.074Z,0.00
2018-12-01T06:12:07.032Z,0.00
2018-12-01T06:13:07.044Z,0.00
2018-12-01T06:14:07.005Z,0.00
2018-12-01T06:15:06.989Z,0.00
2018-12-01T06:16:06.979Z,0.00
2018-12-01T06:17:06.975Z,0.00
2018-12-01T06:18:07.017Z,0.00
2018-12-01T06:19:06.946Z,0.00
2018-12-01T06:20:06.935Z,0.00
2018-12-01T06:21:06.957Z,0.00
2018-12-01T06:22:06.913Z,0.00
2018-12-01T06:23:06.928Z,0.00
2018-12-01T06:24:06.919Z,0.00
2018-12-01T06:25:06.880Z,0.00
2018-12-01T06:26:06.874Z,0.00
2018-12-01T06:27:06.863Z,0.00
2018-12-01T06:28:06.879Z,0.00
2018-12-01T06:29:06.838Z,0.00
2018-12-01T06:30:06.822Z,0.00
2018-12-01T06:31:06.813Z,0.00
2018-12-01T06:32:06.800Z,0.00
2018-12-01T06:33:06.843Z,0.00
2018-12-01T06:34:06.788Z,0.00
2018-12-01T06:35:06.774Z,0.00
2018-12-01T06:36:06.759Z,0.00
2018-12-01T06:37:06.744Z,0.00
2018-12-01T06:38:06.768Z,4.00
2018-12-01T06:39:06.722Z,4.00
2018-12-01T06:40:06.711Z,0.00
2018-12-01T06:41:06.704Z,4.00
2018-12-01T06:42:06.694Z,4.00
2018-12-01T06:43:06.707Z,4.00
2018-12-01T06:44:06.668Z,8.00
2018-12-01T06:45:06.656Z,4.00
2018-12-01T06:46:06.646Z,8.00
2018-12-01T06:47:06.636Z,8.00
2018-12-01T06:48:06.671Z,8.00
2018-12-01T06:49:06.617Z,8.00
2018-12-01T06:50:06.602Z,12.00
2018-12-01T06:51:06.594Z,16.00
2018-12-01T06:52:06.582Z,20.00
2018-12-01T06:53:06.604Z,24.00
2018-12-01T06:54:06.559Z,24.00
2018-12-01T06:55:06.545Z,28.00
2018-12-01T06:56:06.535Z,36.00
2018-12-01T06:57:06.526Z,36.00
2018-12-01T06:58:06.575Z,48.00
2018-12-01T06:59:06.508Z,52.00
2018-12-01T07:00:06.497Z,60.00
2018-12-01T07:01:06.479Z,76.00
2018-12-01T07:02:06.472Z,80.00
2018-12-01T07:03:06.487Z,92.00
2018-12-01T07:04:06.476Z,100.00
2018-12-01T07:05:06.441Z,108.00
2018-12-01T07:06:06.424Z,112.00
2018-12-01T07:07:06.415Z,124.00
2018-12-01T07:08:06.432Z,136.00
2018-12-01T07:09:06.394Z,144.00
2018-12-01T07:10:06.385Z,156.00
2018-12-01T07:11:06.398Z,168.00
2018-12-01T07:12:06.367Z,184.00
2018-12-01T07:13:06.380Z,200.00
2018-12-01T07:14:06.333Z,212.00
2018-12-01T07:15:06.326Z,228.00
2018-12-01T07:16:06.309Z,244.00
2018-12-01T07:17:06.302Z,264.00
2018-12-01T07:18:06.296Z,288.00
2018-12-01T07:19:06.328Z,308.00
2018-12-01T07:20:06.270Z,332.00
2018-12-01T07:21:06.259Z,352.00
2018-12-01T07:22:06.248Z,380.00
2018-12-01T07:23:06.266Z,412.00
2018-12-01T07:24:06.249Z,448.00
2018-12-01T07:25:06.211Z,484.00
2018-12-01T07:26:06.203Z,524.00
2018-12-01T07:27:06.186Z,568.00
2018-12-01T07:28:06.179Z,608.00
2018-12-01T07:29:06.196Z,640.00
2018-12-01T07:30:06.153Z,660.00
2018-12-01T07:31:06.146Z,672.00
2018-12-01T07:32:06.161Z,680.00
2018-12-01T07:33:06.120Z,696.00
2018-12-01T07:34:06.137Z,716.00
2018-12-01T07:35:06.098Z,728.00
2018-12-01T07:36:06.091Z,744.00
2018-12-01T07:37:06.075Z,760.00
2018-12-01T07:38:06.062Z,772.00
2018-12-01T07:39:06.085Z,776.00
2018-12-01T07:40:06.044Z,776.00
2018-12-01T07:41:06.032Z,788.00
2018-12-01T07:42:06.017Z,804.00
2018-12-01T07:43:06.008Z,832.00
2018-12-01T07:44:06.058Z,860.00
2018-12-01T07:45:05.989Z,888.00
2018-12-01T07:46:05.975Z,904.00
2018-12-01T07:47:05.967Z,904.00
2018-12-01T07:48:05.956Z,900.00
2018-12-01T07:49:05.977Z,896.00
2018-12-01T07:50:05.931Z,924.00
2018-12-01T07:51:05.955Z,968.00
2018-12-01T07:52:05.911Z,1024.00
2018-12-01T07:53:05.904Z,1092.00
2018-12-01T07:54:05.925Z,1160.00
2018-12-01T07:55:05.878Z,1228.00
2018-12-01T07:56:05.872Z,1272.00
2018-12-01T07:57:05.855Z,1300.00
2018-12-01T07:58:05.843Z,1340.00
2018-12-01T07:59:05.899Z,1376.00
2018-12-01T08:00:05.823Z,1408.00
2018-12-01T08:01:05.811Z,1428.00
2018-12-01T08:02:05.799Z,1456.00
2018-12-01T08:03:05.791Z,1504.00
2018-12-01T08:04:05.809Z,1556.00
2018-12-01T08:05:05.765Z,1616.00
2018-12-01T08:06:05.755Z,1700.00
2018-12-01T08:07:05.744Z,1772.00
2018-12-01T08:08:05.734Z,1796.00
2018-12-01T08:09:05.753Z,1768.00
2018-12-01T08:10:05.731Z,1716.00
2018-12-01T08:11:05.703Z,1668.00
2018-12-01T08:12:05.688Z,1620.00
2018-12-01T08:13:05.682Z,1592.00
2018-12-01T08:14:05.697Z,1592.00
2018-12-01T08:15:05.656Z,1616.00
2018-12-01T08:16:05.643Z,1640.00
2018-12-01T08:17:05.632Z,1684.00
2018-12-01T08:18:05.631Z,1732.00
2018-12-01T08:19:05.642Z,1788.00
2018-12-01T08:20:05.619Z,1832.00
2018-12-01T08:21:05.587Z,1864.00
2018-12-01T08:22:05.582Z,1872.00
2018-12-01T08:23:05.571Z,1864.00
2018-12-01T08:24:05.587Z,1840.00
2018-12-01T08:25:05.543Z,1816.00
2018-12-01T08:26:05.535Z,1800.00
2018-12-01T08:27:05.524Z,1784.00
2018-12-01T08:28:05.512Z,1772.00
2018-12-01T08:29:05.526Z,1772.00
2018-12-01T08:30:05.487Z,1784.00
2018-12-01T08:31:05.487Z,1800.00
2018-12-01T08:32:05.466Z,1816.00
2018-12-01T08:33:05.455Z,1836.00
2018-12-01T08:34:05.471Z,1864.00
2018-12-01T08:35:05.431Z,1880.00
2018-12-01T08:36:05.421Z,1880.00
2018-12-01T08:37:05.417Z,1868.00
2018-12-01T08:38:05.399Z,1848.00
2018-12-01T08:39:05.416Z,1844.00
2018-12-01T08:40:05.377Z,1844.00
2018-12-01T08:41:05.366Z,1856.00
2018-12-01T08:42:05.353Z,1868.00
2018-12-01T08:43:05.344Z,1904.00
2018-12-01T08:44:05.362Z,1924.00
2018-12-01T08:45:05.321Z,1924.00
2018-12-01T08:46:05.336Z,1920.00
2018-12-01T08:47:05.302Z,1940.00
2018-12-01T08:48:05.290Z,1988.00
2018-12-01T08:49:05.309Z,2032.00
2018-12-01T08:50:05.281Z,2096.00
2018-12-01T08:51:05.266Z,2212.00
2018-12-01T08:52:05.247Z,2388.00
2018-12-01T08:53:05.233Z,2612.00
2018-12-01T08:54:05.254Z,2884.00
2018-12-01T08:55:05.212Z,3184.00
2018-12-01T08:56:05.199Z,3428.00
2018-12-01T08:57:05.189Z,3512.00
2018-12-01T08:58:05.175Z,3424.00
2018-12-01T08:59:05.196Z,3248.00
2018-12-01T09:00:05.154Z,3104.00
2018-12-01T09:01:05.143Z,2956.00
2018-12-01T09:02:05.133Z,2876.00
2018-12-01T09:03:05.119Z,2908.00
2018-12-01T09:04:05.113Z,3024.00
2018-12-01T09:05:05.125Z,3200.00
2018-12-01T09:06:05.086Z,3368.00
2018-12-01T09:07:05.076Z,3472.00
2018-12-01T09:08:05.068Z,3460.00
2018-12-01T09:09:05.083Z,3344.00
2018-12-01T09:10:05.053Z,3308.00
2018-12-01T09:11:05.031Z,3300.00
2018-12-01T09:12:05.020Z,3392.00
2018-12-01T09:13:05.011Z,3436.00
2018-12-01T09:14:05.003Z,3428.00
2018-12-01T09:15:05.024Z,3324.00
2018-12-01T09:16:04.978Z,3260.00
2018-12-01T09:17:04.967Z,3224.00
2018-12-01T09:18:04.953Z,3264.00
2018-12-01T09:19:04.944Z,3316.00
2018-12-01T09:20:04.966Z,3280.00
2018-12-01T09:21:04.920Z,3124.00
2018-12-01T09:22:04.913Z,2960.00
2018-12-01T09:23:04.905Z,2848.00
2018-12-01T09:24:04.889Z,2800.00
2018-12-01T09:25:04.903Z,2764.00
2018-12-01T09:26:04.897Z,2652.00
2018-12-01T09:27:04.852Z,2444.00
2018-12-01T09:28:04.843Z,2132.00
2018-12-01T09:29:04.834Z,1936.00
2018-12-01T09:30:04.848Z,1852.00
2018-12-01T09:31:04.808Z,1708.00
2018-12-01T09:32:04.797Z,1644.00
2018-12-01T09:33:04.792Z,1752.00
2018-12-01T09:34:04.775Z,1840.00
2018-12-01T09:35:04.798Z,1912.00
2018-12-01T09:36:04.752Z,2120.00
2018-12-01T09:37:04.741Z,2312.00
2018-12-01T09:38:04.737Z,2424.00
2018-12-01T09:39:04.718Z,2524.00
2018-12-01T09:40:04.739Z,2480.00
2018-12-01T09:41:04.704Z,2380.00
2018-12-01T09:42:04.687Z,2436.00
2018-12-01T09:43:04.678Z,2704.00
2018-12-01T09:44:04.668Z,2936.00
2018-12-01T09:45:04.688Z,3020.00
2018-12-01T09:46:04.663Z,3132.00
2018-12-01T09:47:04.646Z,3264.00
2018-12-01T09:48:04.626Z,3392.00
2018-12-01T09:49:04.626Z,3296.00
2018-12-01T09:50:04.627Z,3076.00
2018-12-01T09:51:04.591Z,2924.00
2018-12-01T09:52:04.575Z,3108.00
2018-12-01T09:53:04.566Z,3512.00
2018-12-01T09:54:04.561Z,3616.00
2018-12-01T09:55:04.568Z,3400.00
2018-12-01T09:56:04.530Z,3152.00
2018-12-01T09:57:04.518Z,3336.00
2018-12-01T09:58:04.509Z,3916.00
2018-12-01T09:59:04.497Z,4128.00
2018-12-01T10:00:04.526Z,4168.00
2018-12-01T10:01:04.477Z,4216.00
2018-12-01T10:02:04.464Z,4236.00
2018-12-01T10:03:04.475Z,4312.00
2018-12-01T10:04:04.443Z,4344.00
2018-12-01T10:05:04.467Z,4280.00
2018-12-01T10:06:04.417Z,4176.00
2018-12-01T10:07:04.415Z,4192.00
2018-12-01T10:08:04.398Z,4204.00
2018-12-01T10:09:04.392Z,4172.00
2018-12-01T10:10:04.414Z,4136.00
2018-12-01T10:11:04.363Z,4016.00
2018-12-01T10:12:04.351Z,4052.00
2018-12-01T10:13:04.340Z,4212.00
2018-12-01T10:14:04.334Z,4512.00
2018-12-01T10:15:04.353Z,4880.00
2018-12-01T10:16:04.307Z,5304.00
2018-12-01T10:17:04.295Z,5776.00
2018-12-01T10:18:04.284Z,6292.00
2018-12-01T10:19:04.274Z,6492.00
2018-12-01T10:20:04.299Z,6352.00
2018-12-01T10:21:04.253Z,6056.00
2018-12-01T10:22:04.239Z,5892.00
2018-12-01T10:23:04.228Z,5892.00
2018-12-01T10:24:04.218Z,6136.00
2018-12-01T10:25:04.234Z,6312.00
2018-12-01T10:26:04.203Z,6396.00
2018-12-01T10:27:04.186Z,6412.00
2018-12-01T10:28:04.173Z,6412.00
2018-12-01T10:29:04.163Z,6420.00
2018-12-01T10:30:04.179Z,6628.00
2018-12-01T10:31:04.138Z,6812.00
2018-12-01T10:32:04.133Z,6796.00
2018-12-01T10:33:04.119Z,6568.00
2018-12-01T10:34:04.109Z,6476.00
2018-12-01T10:35:04.125Z,6280.00
2018-12-01T10:36:04.087Z,5952.00
2018-12-01T10:37:04.073Z,5584.00
2018-12-01T10:38:04.070Z,5372.00
2018-12-01T10:39:04.059Z,5088.00
2018-12-01T10:40:04.068Z,5016.00
2018-12-01T10:41:04.027Z,4932.00
2018-12-01T10:42:04.017Z,4904.00
2018-12-01T10:43:04.015Z,4808.00
2018-12-01T10:44:03.994Z,4764.00
2018-12-01T10:45:04.019Z,4708.00
2018-12-01T10:46:03.974Z,4684.00
2018-12-01T10:47:03.960Z,4656.00
2018-12-01T10:48:03.963Z,4640.00
2018-12-01T10:49:03.940Z,4584.00
2018-12-01T10:50:03.955Z,4548.00
2018-12-01T10:51:03.920Z,4532.00
2018-12-01T10:52:03.904Z,4488.00
2018-12-01T10:53:03.893Z,4524.00
2018-12-01T10:54:03.881Z,4548.00
2018-12-01T10:55:03.899Z,4620.00
2018-12-01T10:56:03.864Z,4916.00
2018-12-01T10:57:03.847Z,5264.00
2018-12-01T10:58:03.837Z,5464.00
2018-12-01T10:59:03.827Z,5612.00
2018-12-01T11:00:03.843Z,5716.00
2018-12-01T11:01:03.803Z,5820.00
2018-12-01T11:02:03.800Z,5916.00
2018-12-01T11:03:03.782Z,6012.00
2018-12-01T11:04:03.771Z,6088.00
2018-12-01T11:05:03.760Z,6144.00
2018-12-01T11:06:03.778Z,6156.00
2018-12-01T11:07:03.737Z,6116.00
2018-12-01T11:08:03.731Z,6040.00
2018-12-01T11:09:03.714Z,5992.00
2018-12-01T11:10:03.732Z,5920.00
2018-12-01T11:11:03.691Z,5820.00
2018-12-01T11:12:03.681Z,5684.00
2018-12-01T11:13:03.669Z,5544.00
2018-12-01T11:14:03.660Z,5472.00
2018-12-01T11:15:03.648Z,5428.00
2018-12-01T11:16:03.665Z,5400.00
2018-12-01T11:17:03.624Z,5356.00
2018-12-01T11:18:03.613Z,5316.00
2018-12-01T11:19:03.603Z,5280.00
2018-12-01T11:20:03.595Z,5220.00
2018-12-01T11:21:03.616Z,5128.00
2018-12-01T11:22:03.568Z,5028.00
2018-12-01T11:23:03.560Z,4900.00
2018-12-01T11:24:03.547Z,4720.00
2018-12-01T11:25:03.538Z,4540.00
2018-12-01T11:26:03.550Z,4360.00
2018-12-01T11:27:03.517Z,4208.00
2018-12-01T11:28:03.501Z,4088.00
2018-12-01T11:29:03.492Z,3940.00
2018-12-01T11:30:03.481Z,3784.00
2018-12-01T11:31:03.500Z,3764.00
2018-12-01T11:32:03.458Z,3888.00
2018-12-01T11:33:03.449Z,3848.00
2018-12-01T11:34:03.435Z,3772.00
2018-12-01T11:35:03.423Z,3828.00
2018-12-01T11:36:03.440Z,4340.00
2018-12-01T11:37:03.401Z,5392.00
2018-12-01T11:38:03.389Z,6028.00
2018-12-01T11:39:03.380Z,6032.00
2018-12-01T11:40:03.373Z,6116.00
2018-12-01T11:41:03.387Z,6100.00
2018-12-01T11:42:03.344Z,6084.00
2018-12-01T11:43:03.333Z,5956.00
2018-12-01T11:44:03.323Z,5688.00
2018-12-01T11:45:03.313Z,5408.00
2018-12-01T11:46:03.331Z,5200.00
2018-12-01T11:47:03.290Z,5024.00
2018-12-01T11:48:03.283Z,4828.00
2018-12-01T11:49:03.268Z,4360.00
2018-12-01T11:50:03.256Z,3988.00
2018-12-01T11:51:03.272Z,3848.00
2018-12-01T11:52:03.234Z,3832.00
2018-12-01T11:53:03.221Z,3912.00
2018-12-01T11:54:03.213Z,3928.00
2018-12-01T11:55:03.205Z,3992.00
2018-12-01T11:56:03.220Z,3988.00
2018-12-01T11:57:03.177Z,3916.00
2018-12-01T11:58:03.166Z,3956.00
2018-12-01T11:59:03.155Z,4204.00
2018-12-01T12:00:03.143Z,4460.00
2018-12-01T12:01:03.166Z,4692.00
2018-12-01T12:02:03.125Z,4800.00
2018-12-01T12:03:03.119Z,4880.00
2018-12-01T12:04:03.101Z,4904.00
2018-12-01T12:05:03.088Z,4968.00
2018-12-01T12:06:03.110Z,5052.00
2018-12-01T12:07:03.065Z,5152.00
2018-12-01T12:08:03.056Z,5292.00
2018-12-01T12:09:03.049Z,5468.00
2018-12-01T12:10:03.032Z,4844.00
2018-12-01T12:11:03.050Z,6300.00
2018-12-01T12:12:03.010Z,7276.00
2018-12-01T12:13:03.000Z,7568.00
2018-12-01T12:14:02.986Z,7252.00
2018-12-01T12:15:02.984Z,6928.00
2018-12-01T12:16:02.994Z,6768.00
2018-12-01T12:17:02.953Z,6748.00
2018-12-01T12:18:02.943Z,6744.00
2018-12-01T12:19:02.931Z,6752.00
2018-12-01T12:20:02.919Z,6736.00
2018-12-01T12:21:02.943Z,6608.00
2018-12-01T12:22:02.900Z,6880.00
2018-12-01T12:23:02.886Z,6988.00
2018-12-01T12:24:02.875Z,6732.00
2018-12-01T12:25:02.867Z,6420.00
2018-12-01T12:26:02.882Z,6288.00
2018-12-01T12:27:02.851Z,6064.00
2018-12-01T12:28:02.831Z,5792.00
2018-12-01T12:29:02.823Z,5544.00
2018-12-01T12:30:02.808Z,5444.00
2018-12-01T12:31:02.827Z,5280.00
2018-12-01T12:32:02.787Z,4956.00
2018-12-01T12:33:02.775Z,4708.00
2018-12-01T12:34:02.765Z,4556.00
2018-12-01T12:35:02.799Z,4468.00
2018-12-01T12:36:02.795Z,4380.00
2018-12-01T12:37:02.734Z,4336.00
2018-12-01T12:38:02.721Z,4316.00
2018-12-01T12:39:02.720Z,4252.00
2018-12-01T12:40:02.698Z,4224.00
2018-12-01T12:41:02.714Z,4308.00
2018-12-01T12:42:02.678Z,4304.00
2018-12-01T12:43:02.663Z,4476.00
2018-12-01T12:44:02.651Z,4572.00
2018-12-01T12:45:02.640Z,4716.00